Time;durP1;ratioP1;P1;durP2;ratioP2;P2;SDS_P1;SDS_P2;PMS_P1;PMS_P2;Temp;Humidity;BMP_temperature;BMP_pressure;BME280_temperature;BME280_humidity;BME280_pressure;Samples;Min_cycle;Max_cycle;Signal;HPM_P1;HPM_P2
2021/04/02 00:00:23;;;;;;;0.52;0.50;;;20.80;48.20;;;;;;7711342;23;20043;-65
2021/04/02 00:03:34;;;;;;;0.30;0.30;;;20.80;48.20;;;;;;7710990;23;20009;-65
2021/04/02 00:06:34;;;;;;;0.57;0.43;;;20.80;48.20;;;;;;7711309;23;20335;-65
2021/04/02 00:09:35;;;;;;;1.02;0.50;;;20.80;48.20;;;;;;7710979;23;20008;-65
2021/04/02 00:12:35;;;;;;;0.45;0.45;;;20.80;48.20;;;;;;7711066;23;20008;-65
2021/04/02 00:15:36;;;;;;;0.68;0.50;;;20.80;48.20;;;;;;7710821;23;20005;-65
2021/04/02 00:18:37;;;;;;;0.40;0.40;;;20.80;48.20;;;;;;7710963;23;20076;-65
2021/04/02 00:21:37;;;;;;;0.40;0.40;;;20.80;48.20;;;;;;7710941;23;20455;-62
2021/04/02 00:24:38;;;;;;;0.60;0.47;;;20.80;48.20;;;;;;7710899;23;20008;-65
2021/04/02 00:27:40;;;;;;;0.77;0.40;;;20.80;48.20;;;;;;7710583;23;20023;-65
2021/04/02 00:30:43;;;;;;;0.40;0.35;;;20.80;48.20;;;;;;7710730;23;20005;-65
2021/04/02 00:33:44;;;;;;;0.52;0.43;;;20.80;48.20;;;;;;7710887;23;20012;-65
2021/04/02 00:36:45;;;;;;;0.30;0.30;;;20.80;48.20;;;;;;7709224;23;20001;-66
2021/04/02 00:39:46;;;;;;;0.35;0.35;;;20.80;48.20;;;;;;7710645;23;20051;-65
2021/04/02 00:42:48;;;;;;;0.40;0.40;;;20.80;48.20;;;;;;7710400;23;20008;-65
2021/04/02 00:45:48;;;;;;;1.23;0.40;;;20.80;48.20;;;;;;7711284;23;20031;-65
2021/04/02 00:48:50;;;;;;;0.90;0.57;;;20.80;48.20;;;;;;7708923;23;20433;-65
2021/04/02 00:51:50;;;;;;;0.40;0.30;;;20.80;48.20;;;;;;7711122;23;20023;-65
2021/04/02 00:54:51;;;;;;;0.30;0.30;;;20.80;48.20;;;;;;7710494;23;20009;-65
2021/04/02 00:57:51;;;;;;;0.60;0.43;;;20.80;48.20;;;;;;7710477;23;20001;-65
2021/04/02 01:00:53;;;;;;;0.40;0.40;;;20.80;48.20;;;;;;7711577;23;20448;-65
2021/04/02 01:03:54;;;;;;;0.38;0.38;;;20.80;48.20;;;;;;7710633;23;20035;-65
2021/04/02 01:06:57;;;;;;;0.32;0.30;;;20.80;48.20;;;;;;7710074;23;20013;-65
2021/04/02 01:09:57;;;;;;;0.70;0.40;;;20.80;48.20;;;;;;7710438;23;20016;-64
2021/04/02 01:13:29;;;;;;;0.52;0.43;;;20.80;48.20;;;;;;7710100;23;20040;-64
2021/04/02 01:16:32;;;;;;;0.30;0.30;;;20.80;48.20;;;;;;7710444;23;20000;-65
2021/04/02 01:19:42;;;;;;;0.28;0.20;;;20.80;48.20;;;;;;7710213;23;20005;-65
2021/04/02 01:22:44;;;;;;;0.30;0.30;;;20.70;48.20;;;;;;7710349;23;20463;-65
2021/04/02 01:26:12;;;;;;;0.25;0.25;;;20.80;48.20;;;;;;7709567;23;20107;-65
2021/04/02 01:29:14;;;;;;;0.32;0.30;;;20.70;48.10;;;;;;7710314;23;20012;-65
2021/04/02 01:32:21;;;;;;;0.88;0.50;;;20.80;48.20;;;;;;7710147;23;20047;-65
2021/04/02 01:35:25;;;;;;;0.55;0.40;;;20.80;48.20;;;;;;7710567;23;20005;-65
2021/04/02 01:38:33;;;;;;;0.43;0.43;;;20.70;48.20;;;;;;7710124;23;20448;-64
2021/04/02 01:41:37;;;;;;;0.40;0.40;;;20.80;48.20;;;;;;7709838;23;20470;-64
2021/04/02 01:44:40;;;;;;;0.22;0.22;;;20.80;48.20;;;;;;7709692;23;20004;-64
2021/04/02 01:47:40;;;;;;;2.17;0.40;;;20.70;48.20;;;;;;7709672;23;20440;-64
2021/04/02 01:50:45;;;;;;;0.50;0.40;;;20.80;48.20;;;;;;7709723;23;20020;-64
2021/04/02 01:53:52;;;;;;;0.30;0.30;;;20.80;48.20;;;;;;7710154;23;20000;-65
2021/04/02 01:56:53;;;;;;;0.35;0.30;;;20.80;48.20;;;;;;7709333;23;20000;-64
2021/04/02 01:59:55;;;;;;;0.47;0.30;;;20.70;48.20;;;;;;7709891;23;20005;-65
2021/04/02 02:02:58;;;;;;;0.20;0.20;;;20.80;48.20;;;;;;7709864;23;20015;-65
2021/04/02 02:06:01;;;;;;;0.50;0.50;;;20.70;48.10;;;;;;7710084;23;20019;-65
2021/04/02 02:09:09;;;;;;;0.47;0.38;;;20.70;48.20;;;;;;7709297;23;20012;-64
2021/04/02 02:12:14;;;;;;;0.30;0.30;;;20.80;48.20;;;;;;7710127;23;20509;-65
2021/04/02 02:15:17;;;;;;;0.55;0.40;;;20.80;48.20;;;;;;7709742;23;20012;-65
2021/04/02 02:18:20;;;;;;;0.63;0.30;;;20.80;48.20;;;;;;7709816;23;20039;-65
2021/04/02 02:21:21;;;;;;;0.50;0.32;;;20.70;48.20;;;;;;7709032;23;20001;-65
2021/04/02 02:24:24;;;;;;;0.63;0.40;;;20.80;48.20;;;;;;7709726;23;20015;-64
2021/04/02 02:27:24;;;;;;;0.30;0.30;;;20.80;48.20;;;;;;7709933;23;20013;-65
2021/04/02 02:30:28;;;;;;;1.02;0.35;;;20.80;48.30;;;;;;7709680;23;20014;-65
2021/04/02 02:33:29;;;;;;;0.32;0.30;;;20.80;48.20;;;;;;7709894;23;20428;-65
2021/04/02 02:36:31;;;;;;;0.20;0.20;;;20.80;48.20;;;;;;7709139;23;20001;-65
2021/04/02 02:39:32;;;;;;;0.20;0.20;;;20.70;48.20;;;;;;7709699;23;20012;-65
2021/04/02 02:42:33;;;;;;;0.30;0.30;;;20.70;48.20;;;;;;7709560;23;20011;-65
2021/04/02 02:45:34;;;;;;;0.47;0.30;;;20.80;48.20;;;;;;7709606;23;20008;-64
2021/04/02 02:48:35;;;;;;;0.60;0.28;;;20.80;48.20;;;;;;7709428;23;20078;-65
2021/04/02 02:51:38;;;;;;;0.45;0.20;;;20.70;48.20;;;;;;7709264;23;20127;-65
2021/04/02 02:54:40;;;;;;;0.40;0.20;;;20.80;48.20;;;;;;7708088;23;20434;-65
2021/04/02 02:57:43;;;;;;;0.45;0.30;;;20.70;48.20;;;;;;7709296;23;20066;-65
2021/04/02 03:00:46;;;;;;;0.43;0.20;;;20.70;48.20;;;;;;7709366;23;20008;-63
2021/04/02 03:03:47;;;;;;;1.38;0.45;;;20.70;48.20;;;;;;7709645;23;21293;-65
2021/04/02 03:06:51;;;;;;;0.32;0.30;;;20.80;48.30;;;;;;7709317;23;20043;-64
2021/04/02 03:09:54;;;;;;;0.43;0.30;;;20.70;48.20;;;;;;7709159;23;20015;-65
2021/04/02 03:12:56;;;;;;;0.60;0.40;;;20.80;48.30;;;;;;7709551;23;20062;-65
2021/04/02 03:15:59;;;;;;;0.38;0.30;;;20.80;48.20;;;;;;7708993;23;20040;-65
2021/04/02 03:19:01;;;;;;;0.57;0.40;;;20.70;48.20;;;;;;7708992;23;20027;-65
2021/04/02 03:22:02;;;;;;;0.57;0.20;;;20.70;48.20;;;;;;7709224;23;20008;-64
2021/04/02 03:25:11;;;;;;;0.32;0.30;;;20.70;48.20;;;;;;7709291;23;20008;-65
2021/04/02 03:28:15;;;;;;;0.25;0.20;;;20.70;48.20;;;;;;7709160;23;20005;-65
2021/04/02 03:31:16;;;;;;;0.40;0.35;;;20.70;48.20;;;;;;7709060;23;20437;-65
2021/04/02 03:34:21;;;;;;;0.47;0.40;;;20.70;48.20;;;;;;7709328;23;20440;-64
2021/04/02 03:37:22;;;;;;;0.20;0.20;;;20.70;48.20;;;;;;7709442;23;20144;-65
2021/04/02 03:40:25;;;;;;;0.20;0.20;;;20.80;48.30;;;;;;7709083;23;20036;-65
2021/04/02 03:43:28;;;;;;;1.95;0.47;;;20.70;48.20;;;;;;7708919;23;20035;-65
2021/04/02 03:46:29;;;;;;;0.40;0.30;;;20.70;48.20;;;;;;7709318;23;20005;-65
2021/04/02 03:49:34;;;;;;;0.25;0.25;;;20.70;48.20;;;;;;7710741;23;20096;-65
2021/04/02 03:52:40;;;;;;;0.52;0.32;;;20.70;48.20;;;;;;7711095;23;20000;-65
2021/04/02 03:55:44;;;;;;;0.30;0.20;;;20.80;48.20;;;;;;7711138;23;20035;-65
2021/04/02 03:58:46;;;;;;;0.20;0.20;;;20.70;48.20;;;;;;7711107;23;20008;-65
2021/04/02 04:01:49;;;;;;;0.30;0.30;;;20.70;48.20;;;;;;7711230;23;20009;-65
2021/04/02 04:04:51;;;;;;;0.30;0.30;;;20.70;48.20;;;;;;7711516;23;20067;-65
2021/04/02 04:07:53;;;;;;;0.43;0.22;;;20.70;48.20;;;;;;7710864;23;20027;-64
2021/04/02 04:10:55;;;;;;;0.73;0.30;;;20.70;48.20;;;;;;7711380;23;20349;-64
2021/04/02 04:13:58;;;;;;;0.68;0.30;;;20.70;48.20;;;;;;7711039;23;20467;-62
2021/04/02 04:17:00;;;;;;;0.45;0.20;;;20.70;48.20;;;;;;7710950;23;20548;-65
2021/04/02 04:20:03;;;;;;;0.30;0.28;;;20.70;48.20;;;;;;7711122;23;20080;-65
2021/04/02 04:23:07;;;;;;;0.60;0.30;;;20.70;48.20;;;;;;7710815;23;20016;-65
2021/04/02 04:26:10;;;;;;;0.30;0.28;;;20.70;48.20;;;;;;7710674;23;20023;-65
2021/04/02 04:29:28;;;;;;;0.30;0.30;;;20.70;48.20;;;;;;7710558;23;20574;-65
2021/04/02 04:32:29;;;;;;;0.22;0.22;;;20.70;48.20;;;;;;7710989;23;20127;-65
2021/04/02 04:35:31;;;;;;;0.68;0.30;;;20.70;48.20;;;;;;7710819;23;20035;-65
2021/04/02 04:38:33;;;;;;;0.30;0.20;;;20.70;48.20;;;;;;7710887;23;20012;-65
2021/04/02 04:41:35;;;;;;;0.22;0.20;;;20.70;48.20;;;;;;7710848;23;20008;-65
2021/04/02 04:44:36;;;;;;;0.20;0.20;;;20.70;48.20;;;;;;7710590;23;20036;-65
2021/04/02 04:47:37;;;;;;;0.55;0.35;;;20.70;48.20;;;;;;7709882;23;20017;-65
2021/04/02 04:50:39;;;;;;;0.22;0.22;;;20.70;48.20;;;;;;7711087;23;20116;-65
2021/04/02 04:53:40;;;;;;;0.25;0.25;;;20.70;48.20;;;;;;7710329;23;20012;-65
2021/04/02 04:56:42;;;;;;;0.60;0.55;;;20.70;48.20;;;;;;7710664;23;20001;-65
2021/04/02 05:00:35;;;;;;;0.50;0.35;;;20.70;48.20;;;;;;7710472;23;20012;-65
2021/04/02 05:03:37;;;;;;;0.15;0.15;;;20.70;48.20;;;;;;7710898;23;20076;-65
2021/04/02 05:06:40;;;;;;;0.75;0.30;;;20.70;48.90;;;;;;7710938;23;20009;-65
2021/04/02 05:09:42;;;;;;;0.30;0.30;;;20.70;48.20;;;;;;7710178;23;20020;-64
2021/04/02 05:12:45;;;;;;;0.50;0.30;;;20.70;48.20;;;;;;7710327;23;20356;-65
2021/04/02 05:15:46;;;;;;;0.32;0.32;;;20.80;48.20;;;;;;7710213;23;20004;-65
2021/04/02 05:18:47;;;;;;;0.55;0.30;;;20.70;48.10;;;;;;7710306;23;20015;-65
2021/04/02 05:21:48;;;;;;;0.22;0.20;;;20.70;48.20;;;;;;7710222;23;20001;-65
2021/04/02 05:24:48;;;;;;;0.32;0.20;;;20.70;48.20;;;;;;7710413;23;20032;-65
2021/04/02 05:27:49;;;;;;;0.47;0.25;;;20.70;48.20;;;;;;7710363;23;20016;-65
2021/04/02 05:30:50;;;;;;;0.17;0.17;;;20.70;48.20;;;;;;7710243;23;20336;-65
2021/04/02 05:33:51;;;;;;;0.20;0.20;;;20.70;48.10;;;;;;7710952;23;20005;-65
2021/04/02 05:36:51;;;;;;;0.52;0.30;;;20.70;48.20;;;;;;7710286;23;20027;-64
2021/04/02 05:39:52;;;;;;;0.75;0.20;;;20.70;48.10;;;;;;7709866;23;20005;-65
2021/04/02 05:42:52;;;;;;;0.82;0.30;;;20.70;48.20;;;;;;7710349;23;20039;-65
2021/04/02 05:45:56;;;;;;;0.20;0.20;;;20.70;48.10;;;;;;7709876;23;20042;-65
2021/04/02 05:49:03;;;;;;;0.88;0.30;;;20.70;48.10;;;;;;7709625;23;20024;-64
2021/04/02 05:52:04;;;;;;;0.93;0.32;;;20.70;48.10;;;;;;7709839;23;20013;-65
2021/04/02 05:55:07;;;;;;;0.40;0.30;;;20.70;48.10;;;;;;7709886;23;20071;-65
2021/04/02 05:58:10;;;;;;;0.28;0.22;;;20.70;48.20;;;;;;7709587;23;20119;-65
2021/04/02 06:01:10;;;;;;;0.50;0.20;;;20.70;48.10;;;;;;7709709;23;19997;-65
2021/04/02 06:04:12;;;;;;;0.10;0.10;;;20.70;48.10;;;;;;7711479;23;20001;-65
2021/04/02 06:07:12;;;;;;;0.30;0.20;;;20.70;48.10;;;;;;7711130;23;20384;-64
2021/04/02 06:10:13;;;;;;;0.45;0.30;;;20.70;48.10;;;;;;7711455;23;20007;-65
2021/04/02 06:13:14;;;;;;;0.30;0.22;;;20.70;48.10;;;;;;7711319;23;20008;-65
2021/04/02 06:16:15;;;;;;;0.20;0.20;;;20.70;48.10;;;;;;7711733;23;20051;-65
2021/04/02 06:19:16;;;;;;;0.63;0.30;;;20.70;48.10;;;;;;7711050;23;20001;-65
2021/04/02 06:22:16;;;;;;;0.73;0.30;;;20.70;48.00;;;;;;7711844;23;20018;-65
2021/04/02 06:25:18;;;;;;;0.20;0.20;;;20.70;48.00;;;;;;7711442;23;20005;-64
2021/04/02 06:28:19;;;;;;;0.35;0.30;;;20.70;48.10;;;;;;7711087;23;20092;-65
2021/04/02 06:31:19;;;;;;;0.32;0.30;;;20.70;48.00;;;;;;7710991;23;20014;-65
2021/04/02 06:34:21;;;;;;;0.47;0.28;;;20.70;48.10;;;;;;7711214;23;20008;-65
2021/04/02 06:37:32;;;;;;;0.22;0.22;;;20.70;48.00;;;;;;7711237;23;20452;-65
2021/04/02 06:40:33;;;;;;;0.30;0.30;;;20.70;48.00;;;;;;7711348;23;20425;-64
2021/04/02 06:43:50;;;;;;;0.32;0.30;;;20.70;48.00;;;;;;7711458;23;20055;-65
2021/04/02 06:46:50;;;;;;;0.40;0.25;;;20.70;48.60;;;;;;7710943;23;20019;-65
2021/04/02 06:49:51;;;;;;;0.15;0.15;;;20.70;48.10;;;;;;7710804;23;20020;-65
2021/04/02 06:52:54;;;;;;;0.30;0.30;;;20.70;48.00;;;;;;7711017;23;20008;-65
2021/04/02 06:55:57;;;;;;;0.20;0.20;;;20.70;47.90;;;;;;7711262;23;20009;-65
2021/04/02 06:58:59;;;;;;;0.60;0.35;;;20.70;47.90;;;;;;7710807;23;20360;-65
2021/04/02 07:02:02;;;;;;;0.32;0.30;;;20.70;48.00;;;;;;7711385;23;20035;-65
2021/04/02 07:05:03;;;;;;;0.20;0.20;;;20.70;48.00;;;;;;7711464;23;20011;-65
2021/04/02 07:08:08;;;;;;;0.38;0.32;;;20.70;48.00;;;;;;7712291;23;20375;-64
2021/04/02 07:11:10;;;;;;;0.32;0.30;;;20.70;47.90;;;;;;7710650;23;20032;-65
2021/04/02 07:14:11;;;;;;;0.10;0.10;;;20.70;47.90;;;;;;7710944;23;20379;-64
2021/04/02 07:17:12;;;;;;;0.22;0.20;;;20.70;48.00;;;;;;7710956;23;20431;-64
2021/04/02 07:20:14;;;;;;;0.10;0.10;;;20.70;47.80;;;;;;7710821;23;20075;-65
2021/04/02 07:23:16;;;;;;;0.20;0.20;;;20.70;48.00;;;;;;7712971;23;20574;-65
2021/04/02 07:26:16;;;;;;;0.20;0.15;;;20.70;47.80;;;;;;7712980;23;20012;-64
2021/04/02 07:29:19;;;;;;;0.25;0.17;;;20.70;47.90;;;;;;7711862;23;20352;-65
2021/04/02 07:32:20;;;;;;;0.20;0.20;;;20.70;47.90;;;;;;7713233;23;20336;-65
2021/04/02 07:35:22;;;;;;;0.55;0.30;;;20.70;47.90;;;;;;7713402;23;20012;-65
2021/04/02 07:38:28;;;;;;;0.20;0.20;;;20.70;47.90;;;;;;7713566;23;20332;-65
2021/04/02 07:41:28;;;;;;;0.20;0.20;;;20.70;47.90;;;;;;7713325;23;20009;-64
2021/04/02 07:44:36;;;;;;;0.30;0.30;;;20.70;48.00;;;;;;7713391;23;20058;-64
2021/04/02 07:47:36;;;;;;;0.70;0.30;;;20.70;48.00;;;;;;7712782;23;20009;-65
2021/04/02 07:50:46;;;;;;;0.90;0.50;;;20.70;47.90;;;;;;7712524;23;20387;-65
2021/04/02 07:53:47;;;;;;;0.40;0.30;;;20.70;48.00;;;;;;7713675;23;20015;-64
2021/04/02 07:56:53;;;;;;;0.20;0.20;;;20.70;48.00;;;;;;7712812;23;20424;-64
2021/04/02 07:59:54;;;;;;;0.20;0.20;;;20.70;47.90;;;;;;7712759;23;20008;-64
2021/04/02 08:03:17;;;;;;;0.43;0.30;;;20.70;48.60;;;;;;7713066;23;20008;-65
2021/04/02 08:06:38;;;;;;;0.22;0.20;;;20.70;48.00;;;;;;7712858;23;20054;-65
2021/04/02 08:09:51;;;;;;;0.25;0.25;;;20.70;47.80;;;;;;7712651;23;20339;-65
2021/04/02 08:12:52;;;;;;;0.20;0.20;;;20.70;48.00;;;;;;7713051;23;20331;-64
2021/04/02 08:15:55;;;;;;;0.50;0.28;;;20.70;47.90;;;;;;7712634;23;20008;-65
2021/04/02 08:19:20;;;;;;;0.50;0.40;;;20.70;47.90;;;;;;7712887;23;20005;-65
2021/04/02 08:22:24;;;;;;;0.20;0.20;;;20.70;47.90;;;;;;7699119;23;20004;-65
2021/04/02 08:25:25;;;;;;;0.40;0.30;;;20.70;48.00;;;;;;7712839;23;20005;-64
2021/04/02 08:28:25;;;;;;;0.47;0.40;;;20.70;48.00;;;;;;7712378;23;20317;-64
2021/04/02 08:31:27;;;;;;;0.63;0.25;;;20.70;47.90;;;;;;7713484;23;20075;-64
2021/04/02 08:34:29;;;;;;;0.30;0.30;;;20.70;48.10;;;;;;7712517;23;20009;-64
2021/04/02 08:37:30;;;;;;;0.25;0.25;;;20.70;48.00;;;;;;7712539;23;20015;-65
2021/04/02 08:40:32;;;;;;;0.30;0.30;;;20.70;48.00;;;;;;7712533;23;20005;-64
2021/04/02 08:43:40;;;;;;;0.30;0.25;;;20.70;47.90;;;;;;7712553;23;20742;-65
2021/04/02 08:46:45;;;;;;;0.30;0.30;;;20.70;48.00;;;;;;7712701;23;20084;-65
2021/04/02 08:49:49;;;;;;;0.35;0.25;;;20.70;48.00;;;;;;7711794;23;20017;-65
2021/04/02 08:52:50;;;;;;;0.15;0.15;;;20.70;48.00;;;;;;7712525;23;20009;-65
2021/04/02 08:55:53;;;;;;;0.40;0.30;;;20.70;48.00;;;;;;7712630;23;20031;-64
2021/04/02 08:58:53;;;;;;;0.35;0.30;;;20.70;48.00;;;;;;7712524;23;20008;-65
2021/04/02 09:01:54;;;;;;;0.30;0.20;;;20.70;48.10;;;;;;7712336;23;20019;-65
2021/04/02 09:04:56;;;;;;;0.22;0.22;;;20.70;48.00;;;;;;7712521;23;20336;-65
2021/04/02 09:07:57;;;;;;;0.10;0.10;;;20.70;48.00;;;;;;7711965;23;20016;-65
2021/04/02 09:10:58;;;;;;;0.30;0.30;;;20.70;48.00;;;;;;7712395;23;20088;-65
2021/04/02 09:13:59;;;;;;;0.20;0.20;;;20.70;48.10;;;;;;7711856;23;20510;-65
2021/04/02 09:17:00;;;;;;;0.20;0.20;;;20.70;48.00;;;;;;7712370;23;20458;-65
2021/04/02 09:20:02;;;;;;;0.20;0.20;;;20.70;48.10;;;;;;7711761;23;20004;-65
2021/04/02 09:23:03;;;;;;;0.40;0.32;;;20.70;48.00;;;;;;7711870;23;20440;-65
2021/04/02 09:26:10;;;;;;;0.20;0.20;;;20.70;48.10;;;;;;7711976;23;20001;-65
2021/04/02 09:29:13;;;;;;;0.35;0.20;;;20.70;48.00;;;;;;7711830;23;20016;-65
2021/04/02 09:32:14;;;;;;;0.43;0.30;;;20.60;48.00;;;;;;7712187;23;20005;-65
2021/04/02 09:35:15;;;;;;;0.32;0.30;;;20.70;48.10;;;;;;7709863;23;20004;-65
2021/04/02 09:38:15;;;;;;;0.20;0.17;;;20.70;48.10;;;;;;7711604;23;20005;-65
2021/04/02 09:41:23;;;;;;;0.28;0.28;;;20.70;48.00;;;;;;7711811;23;20004;-65
2021/04/02 09:44:30;;;;;;;0.38;0.38;;;20.70;48.00;;;;;;7711395;23;20103;-65
2021/04/02 09:47:42;;;;;;;0.45;0.20;;;20.70;48.10;;;;;;7711649;23;20012;-64
2021/04/02 09:50:42;;;;;;;0.40;0.20;;;20.70;48.10;;;;;;7711460;23;20314;-65
2021/04/02 09:53:43;;;;;;;0.55;0.28;;;20.60;48.00;;;;;;7711367;23;20000;-65
2021/04/02 09:56:44;;;;;;;0.28;0.20;;;20.70;48.10;;;;;;7711734;23;20024;-65
2021/04/02 09:59:45;;;;;;;0.85;0.38;;;20.70;48.10;;;;;;7711882;23;20004;-65
2021/04/02 10:02:45;;;;;;;0.28;0.17;;;20.70;48.00;;;;;;7711567;23;20417;-65
2021/04/02 10:05:46;;;;;;;0.10;0.10;;;20.70;48.10;;;;;;7711376;23;20044;-65
2021/04/02 10:08:47;;;;;;;0.10;0.10;;;20.70;48.70;;;;;;7710819;23;20078;-64
2021/04/02 10:11:49;;;;;;;0.20;0.20;;;20.60;48.00;;;;;;7699945;23;20008;-65
2021/04/02 10:14:49;;;;;;;0.28;0.20;;;20.70;48.00;;;;;;7707206;23;19996;-65
2021/04/02 10:17:50;;;;;;;0.20;0.20;;;20.60;47.90;;;;;;7705219;23;20488;-65
2021/04/02 10:20:50;;;;;;;0.30;0.20;;;20.60;48.00;;;;;;7707210;23;20005;-65
2021/04/02 10:23:52;;;;;;;1.08;0.20;;;20.70;48.10;;;;;;7706470;23;20008;-65
2021/04/02 10:26:54;;;;;;;0.30;0.20;;;20.60;48.00;;;;;;7708145;23;20017;-65
2021/04/02 10:29:54;;;;;;;0.30;0.30;;;20.70;48.00;;;;;;7706952;23;20004;-65
2021/04/02 10:32:55;;;;;;;0.20;0.20;;;20.70;48.00;;;;;;7707516;23;20098;-65
2021/04/02 10:35:56;;;;;;;0.73;0.20;;;20.60;48.00;;;;;;7706767;23;20080;-65
2021/04/02 10:38:56;;;;;;;0.20;0.20;;;20.60;48.00;;;;;;7708660;23;20005;-65
2021/04/02 10:41:57;;;;;;;0.20;0.20;;;20.70;48.10;;;;;;7707098;23;20072;-65
2021/04/02 10:44:57;;;;;;;0.95;0.20;;;20.70;48.00;;;;;;7707793;23;20063;-65
2021/04/02 10:47:58;;;;;;;0.70;0.20;;;20.60;48.00;;;;;;7706237;23;20016;-65
2021/04/02 10:50:59;;;;;;;0.20;0.20;;;20.60;48.00;;;;;;7707573;23;20066;-65
2021/04/02 10:54:02;;;;;;;0.32;0.25;;;20.70;48.00;;;;;;7706907;23;20012;-65
2021/04/02 10:57:03;;;;;;;0.25;0.20;;;20.70;48.10;;;;;;7711353;23;20076;-65
2021/04/02 11:00:07;;;;;;;0.22;0.17;;;20.60;48.00;;;;;;7709637;23;20211;-65
2021/04/02 11:03:08;;;;;;;3.30;0.52;;;20.70;48.10;;;;;;7708756;23;20135;-65
2021/04/02 11:06:08;;;;;;;0.20;0.20;;;20.70;48.10;;;;;;7710192;23;20278;-65
2021/04/02 11:09:09;;;;;;;2.30;0.38;;;20.70;48.10;;;;;;7709413;23;20009;-65
2021/04/02 11:12:10;;;;;;;0.35;0.20;;;20.70;48.10;;;;;;7708677;23;20008;-65
2021/04/02 11:15:12;;;;;;;0.43;0.20;;;20.70;48.10;;;;;;7709635;23;20004;-65
2021/04/02 11:18:13;;;;;;;2.72;0.20;;;20.70;48.10;;;;;;7709645;23;20019;-65
2021/04/02 11:21:14;;;;;;;0.75;0.20;;;20.70;48.10;;;;;;7709779;23;20008;-65
2021/04/02 11:24:14;;;;;;;0.28;0.28;;;20.70;48.10;;;;;;7708098;23;20008;-65
2021/04/02 11:27:15;;;;;;;0.55;0.17;;;20.70;48.10;;;;;;7710632;23;20016;-65
2021/04/02 11:30:17;;;;;;;1.15;0.20;;;20.70;48.10;;;;;;7709924;23;20336;-65
2021/04/02 11:33:17;;;;;;;0.30;0.20;;;20.70;48.10;;;;;;7709668;23;20009;-65
2021/04/02 11:36:18;;;;;;;0.20;0.20;;;20.70;48.10;;;;;;7709360;23;20015;-65
2021/04/02 11:39:19;;;;;;;2.75;0.20;;;20.70;48.10;;;;;;7708665;23;20051;-65
2021/04/02 11:42:19;;;;;;;3.78;0.20;;;20.70;48.20;;;;;;7708934;23;20035;-65
2021/04/02 11:45:21;;;;;;;1.05;0.22;;;20.70;48.10;;;;;;7709788;23;20440;-65
2021/04/02 11:48:21;;;;;;;0.38;0.25;;;20.70;48.10;;;;;;7709030;23;20020;-65
2021/04/02 11:51:22;;;;;;;0.65;0.22;;;20.70;48.20;;;;;;7709281;23;20013;-65
2021/04/02 11:54:24;;;;;;;0.63;0.30;;;20.70;48.10;;;;;;7709075;23;20018;-65
2021/04/02 11:57:24;;;;;;;0.15;0.15;;;20.70;48.10;;;;;;7709827;23;20019;-65
2021/04/02 12:00:26;;;;;;;0.40;0.30;;;20.70;48.10;;;;;;7709761;23;20004;-65
2021/04/02 12:03:26;;;;;;;0.45;0.20;;;20.70;48.10;;;;;;7708553;23;20001;-65
2021/04/02 12:06:27;;;;;;;0.22;0.20;;;20.70;48.20;;;;;;7708939;23;20272;-65
2021/04/02 12:09:27;;;;;;;0.38;0.20;;;20.70;48.20;;;;;;7709768;23;20036;-65
2021/04/02 12:12:28;;;;;;;0.50;0.20;;;20.70;48.20;;;;;;7708956;23;20005;-65
2021/04/02 12:15:29;;;;;;;0.60;0.30;;;20.70;48.20;;;;;;7708539;23;20372;-65
2021/04/02 12:18:29;;;;;;;0.70;0.20;;;20.70;48.20;;;;;;7709929;23;20047;-65
2021/04/02 12:21:30;;;;;;;1.02;0.28;;;20.70;48.20;;;;;;7709294;23;20016;-63
2021/04/02 12:24:31;;;;;;;0.60;0.30;;;20.70;48.20;;;;;;7708482;23;20009;-64
2021/04/02 12:27:32;;;;;;;0.20;0.20;;;20.70;48.20;;;;;;7708793;23;20021;-65
2021/04/02 12:30:32;;;;;;;7.47;1.00;;;20.70;48.50;;;;;;7709522;23;20108;-65
2021/04/02 12:33:33;;;;;;;5.57;0.70;;;20.70;48.20;;;;;;7708876;23;20104;-66
2021/04/02 12:36:33;;;;;;;14.23;1.30;;;20.80;48.20;;;;;;7708402;23;20363;-66
2021/04/02 12:39:34;;;;;;;8.98;1.00;;;20.80;48.10;;;;;;7708922;23;20400;-66
2021/04/02 12:42:35;;;;;;;17.02;1.20;;;20.80;47.90;;;;;;7708554;23;20005;-64
2021/04/02 12:45:35;;;;;;;8.93;0.57;;;20.80;48.50;;;;;;7709298;23;20009;-65
2021/04/02 12:48:36;;;;;;;7.15;0.80;;;20.90;48.30;;;;;;7709189;23;20102;-65
2021/04/02 12:51:36;;;;;;;6.18;0.63;;;20.80;48.20;;;;;;7707852;23;20154;-65
2021/04/02 12:54:37;;;;;;;6.32;0.50;;;20.80;48.20;;;;;;7708722;23;20042;-65
2021/04/02 12:57:39;;;;;;;7.22;0.65;;;20.80;48.20;;;;;;7708809;23;20066;-65
2021/04/02 13:00:39;;;;;;;1.58;0.40;;;20.80;48.30;;;;;;7709149;23;20036;-64
2021/04/02 13:03:40;;;;;;;7.70;0.73;;;20.80;48.30;;;;;;7707355;23;20112;-65
2021/04/02 13:06:40;;;;;;;4.65;0.52;;;20.80;48.30;;;;;;7709359;23;20435;-65
2021/04/02 13:09:41;;;;;;;2.70;0.75;;;20.70;48.30;;;;;;7709976;23;20047;-64
2021/04/02 13:12:44;;;;;;;5.88;0.38;;;20.70;48.40;;;;;;7707585;23;20066;-65
2021/04/02 13:15:44;;;;;;;3.20;0.40;;;20.80;48.40;;;;;;7708322;23;20032;-65
2021/04/02 13:18:45;;;;;;;2.42;0.28;;;20.80;48.40;;;;;;7708277;23;20008;-65
2021/04/02 13:21:45;;;;;;;1.77;0.60;;;20.80;48.40;;;;;;7708187;23;20013;-64
2021/04/02 13:24:46;;;;;;;1.60;0.40;;;20.80;48.40;;;;;;7708316;23;20037;-65
2021/04/02 13:27:47;;;;;;;9.75;0.40;;;20.70;48.40;;;;;;7708237;23;20027;-64
2021/04/02 13:30:48;;;;;;;3.50;0.47;;;20.80;49.20;;;;;;7708381;23;20398;-64
2021/04/02 13:33:48;;;;;;;1.15;0.50;;;20.80;48.90;;;;;;7707939;23;20008;-65
2021/04/02 13:36:49;;;;;;;2.53;0.43;;;20.80;48.70;;;;;;7708481;23;20421;-66
2021/04/02 13:39:49;;;;;;;4.65;0.40;;;20.80;48.50;;;;;;7707705;23;20013;-65
2021/04/02 13:42:50;;;;;;;6.65;1.08;;;20.80;48.60;;;;;;7707398;23;20015;-65
2021/04/02 13:45:50;;;;;;;7.38;0.47;;;20.80;48.60;;;;;;7709014;23;20008;-66
2021/04/02 13:48:51;;;;;;;0.63;0.30;;;20.80;48.60;;;;;;7708692;23;20470;-65
2021/04/02 13:51:51;;;;;;;0.63;0.30;;;20.80;48.60;;;;;;7706868;23;20012;-65
2021/04/02 13:54:52;;;;;;;1.20;0.32;;;20.80;48.60;;;;;;7708133;23;20043;-65
2021/04/02 13:57:53;;;;;;;1.10;0.32;;;20.70;48.50;;;;;;7708151;23;20012;-65
2021/04/02 14:00:53;;;;;;;1.13;0.35;;;20.70;48.50;;;;;;7708163;23;20082;-66
2021/04/02 14:03:54;;;;;;;0.47;0.30;;;20.80;48.60;;;;;;7707100;23;20016;-64
2021/04/02 14:06:54;;;;;;;1.95;0.30;;;20.70;48.50;;;;;;7707210;23;20085;-66
2021/04/02 14:09:55;;;;;;;0.75;0.20;;;20.80;48.60;;;;;;7708087;23;20011;-65
2021/04/02 14:12:55;;;;;;;1.33;0.40;;;20.80;48.60;;;;;;7707052;23;20008;-65
2021/04/02 14:15:56;;;;;;;1.33;0.50;;;20.80;48.60;;;;;;7709141;23;20008;-65
2021/04/02 14:18:58;;;;;;;1.23;0.20;;;20.80;48.60;;;;;;7706394;23;20012;-61
2021/04/02 14:21:59;;;;;;;0.85;0.20;;;20.70;48.50;;;;;;7708222;23;20039;-65
2021/04/02 14:24:59;;;;;;;3.80;0.30;;;20.80;48.60;;;;;;7707784;23;20112;-65
2021/04/02 14:28:01;;;;;;;0.22;0.15;;;20.70;48.50;;;;;;7707552;23;20396;-65
2021/04/02 14:31:02;;;;;;;1.23;0.30;;;20.80;48.60;;;;;;7707816;23;20724;-65
2021/04/02 14:34:03;;;;;;;0.47;0.30;;;20.80;48.60;;;;;;7706754;23;20082;-65
2021/04/02 14:37:03;;;;;;;0.70;0.30;;;20.80;48.60;;;;;;7708876;23;20484;-65
2021/04/02 14:40:08;;;;;;;1.20;0.30;;;20.80;48.70;;;;;;7707633;23;20093;-65
2021/04/02 14:43:08;;;;;;;1.15;0.35;;;20.70;48.60;;;;;;7706348;23;20000;-66
2021/04/02 14:46:09;;;;;;;0.50;0.50;;;20.70;48.60;;;;;;7707831;23;20090;-65
2021/04/02 14:49:09;;;;;;;0.60;0.40;;;20.70;48.50;;;;;;7707527;23;20582;-65
2021/04/02 14:52:10;;;;;;;1.45;0.25;;;20.70;48.60;;;;;;7707203;23;20008;-66
2021/04/02 14:55:11;;;;;;;0.45;0.20;;;20.80;48.60;;;;;;7706787;23;20008;-65
2021/04/02 14:58:11;;;;;;;0.35;0.20;;;20.70;48.60;;;;;;7707921;23;20385;-65
2021/04/02 15:01:12;;;;;;;0.55;0.30;;;20.70;48.60;;;;;;7707774;23;20055;-65
2021/04/02 15:04:12;;;;;;;0.30;0.20;;;20.70;48.50;;;;;;7706857;23;20015;-64
2021/04/02 15:07:13;;;;;;;0.43;0.30;;;20.70;48.50;;;;;;7706462;23;20013;-66
2021/04/02 15:10:16;;;;;;;0.50;0.35;;;20.70;48.60;;;;;;7707525;23;20009;-66
2021/04/02 15:13:16;;;;;;;0.55;0.40;;;20.70;48.50;;;;;;7706888;23;20509;-63
2021/04/02 15:16:17;;;;;;;0.70;0.30;;;20.80;48.70;;;;;;7707730;23;20000;-66
2021/04/02 15:19:17;;;;;;;7.55;0.65;;;20.70;49.10;;;;;;7706099;23;20378;-65
2021/04/02 15:22:18;;;;;;;2.58;0.50;;;20.80;49.00;;;;;;7707672;23;20009;-65
2021/04/02 15:25:19;;;;;;;2.35;0.50;;;20.80;48.30;;;;;;7706857;23;20012;-65
2021/04/02 15:28:20;;;;;;;0.47;0.40;;;20.80;48.40;;;;;;7707986;23;20047;-65
2021/04/02 15:31:20;;;;;;;2.05;0.50;;;20.80;48.50;;;;;;7706347;23;20391;-65
2021/04/02 15:34:21;;;;;;;6.72;0.47;;;20.80;48.50;;;;;;7707202;23;20012;-65
2021/04/02 15:37:21;;;;;;;4.22;0.60;;;20.80;48.50;;;;;;7708477;23;20031;-65
2021/04/02 15:40:27;;;;;;;2.50;0.55;;;20.80;48.60;;;;;;7706623;23;20035;-65
2021/04/02 15:43:27;;;;;;;4.55;0.43;;;20.80;48.60;;;;;;7707239;23;20008;-66
2021/04/02 15:46:29;;;;;;;6.07;0.77;;;20.80;48.50;;;;;;7709818;23;20012;-66
2021/04/02 15:49:29;;;;;;;4.82;0.50;;;20.80;48.50;;;;;;7709805;23;20036;-65